createdAt,value
2016-07-23T00:00:53.207Z,1010.75
2016-07-23T00:01:53.201Z,1010.77
2016-07-23T00:02:53.186Z,1010.74
2016-07-23T00:03:53.183Z,1010.72
2016-07-23T00:04:53.169Z,1010.76
2016-07-23T00:05:53.155Z,1010.76
2016-07-23T00:06:53.146Z,1010.78
2016-07-23T00:07:53.138Z,1010.76
2016-07-23T00:08:53.128Z,1010.78
2016-07-23T00:09:53.122Z,1010.76
2016-07-23T00:10:53.108Z,1010.78
2016-07-23T00:11:53.099Z,1010.74
2016-07-23T00:12:53.095Z,1010.75
2016-07-23T00:13:53.092Z,1010.75
2016-07-23T00:14:53.067Z,1010.79
2016-07-23T00:15:53.058Z,1010.77
2016-07-23T00:16:53.049Z,1010.76
2016-07-23T00:17:53.039Z,1010.84
2016-07-23T00:18:53.029Z,1010.81
2016-07-23T00:19:53.024Z,1010.83
2016-07-23T00:20:53.019Z,1010.84
2016-07-23T00:21:53.004Z,1010.8
2016-07-23T00:22:53.000Z,1010.84
2016-07-23T00:23:52.980Z,1010.82
2016-07-23T00:24:52.978Z,1010.8
2016-07-23T00:25:52.965Z,1010.86
2016-07-23T00:26:52.958Z,1010.86
2016-07-23T00:27:52.946Z,1010.86
2016-07-23T00:28:52.936Z,1010.9
2016-07-23T00:29:52.931Z,1010.89
2016-07-23T00:30:52.921Z,1010.91
2016-07-23T00:31:52.905Z,1010.93
2016-07-23T00:32:52.897Z,1010.96
2016-07-23T00:33:52.891Z,1010.99
2016-07-23T00:34:52.877Z,1010.97
2016-07-23T00:35:52.871Z,1010.94
2016-07-23T00:36:52.858Z,1010.92
2016-07-23T00:37:52.851Z,1010.92
2016-07-23T00:38:52.841Z,1010.87
2016-07-23T00:39:52.832Z,1010.84
2016-07-23T00:40:52.818Z,1010.85
2016-07-23T00:41:52.807Z,1010.85
2016-07-23T00:42:52.800Z,1010.87
2016-07-23T00:43:52.788Z,1010.89
2016-07-23T00:44:52.782Z,1010.86
2016-07-23T00:45:52.770Z,1010.86
2016-07-23T00:46:52.768Z,1010.87
2016-07-23T00:47:52.751Z,1010.87
2016-07-23T00:48:52.740Z,1010.85
2016-07-23T00:49:52.731Z,1010.84
2016-07-23T00:50:52.719Z,1010.84
2016-07-23T00:51:52.710Z,1010.85
2016-07-23T00:52:52.700Z,1010.85
2016-07-23T00:53:52.692Z,1010.82
2016-07-23T00:54:52.678Z,1010.85
2016-07-23T00:55:52.672Z,1010.84
2016-07-23T00:56:52.662Z,1010.87
2016-07-23T00:57:52.652Z,1010.86
2016-07-23T00:58:52.639Z,1010.86
2016-07-23T00:59:52.633Z,1010.88
2016-07-23T01:00:52.622Z,1010.85
2016-07-23T01:01:52.621Z,1010.88
2016-07-23T01:02:52.610Z,1010.82
2016-07-23T01:03:52.596Z,1010.82
2016-07-23T01:04:52.584Z,1010.82
2016-07-23T01:05:52.578Z,1010.75
2016-07-23T01:06:52.643Z,1010.74
2016-07-23T01:07:52.562Z,1010.68
2016-07-23T01:08:52.552Z,1010.65
2016-07-23T01:09:52.536Z,1010.64
2016-07-23T01:10:52.569Z,1010.6
2016-07-23T01:11:52.516Z,1010.6
2016-07-23T01:12:52.509Z,1010.6
2016-07-23T01:13:52.501Z,1010.59
2016-07-23T01:14:52.492Z,1010.59
2016-07-23T01:15:52.472Z,1010.61
2016-07-23T01:16:52.462Z,1010.61
2016-07-23T01:17:52.452Z,1010.62
2016-07-23T01:18:52.445Z,1010.64
2016-07-23T01:19:52.442Z,1010.63
2016-07-23T01:20:52.427Z,1010.62
2016-07-23T01:21:52.419Z,1010.61
2016-07-23T01:22:52.413Z,1010.58
2016-07-23T01:23:52.400Z,1010.59
2016-07-23T01:24:52.389Z,1010.59
2016-07-23T01:25:52.378Z,1010.61
2016-07-23T01:26:52.369Z,1010.58
2016-07-23T01:27:52.358Z,1010.63
2016-07-23T01:28:52.346Z,1010.65
2016-07-23T01:29:52.339Z,1010.68
2016-07-23T01:30:52.344Z,1010.68
2016-07-23T01:31:52.319Z,1010.66
2016-07-23T01:32:52.311Z,1010.65
2016-07-23T01:33:52.301Z,1010.61
2016-07-23T01:34:52.289Z,1010.65
2016-07-23T01:35:52.279Z,1010.65
2016-07-23T01:36:52.273Z,1010.66
2016-07-23T01:37:52.256Z,1010.63
2016-07-23T01:38:52.252Z,1010.66
2016-07-23T01:39:52.236Z,1010.69
2016-07-23T01:40:52.225Z,1010.64
2016-07-23T01:41:52.220Z,1010.67
2016-07-23T01:42:52.211Z,1010.65
2016-07-23T01:43:52.212Z,1010.63
2016-07-23T01:44:52.194Z,1010.61
2016-07-23T01:45:52.178Z,1010.65
2016-07-23T01:46:52.169Z,1010.68
2016-07-23T01:47:52.160Z,1010.66
2016-07-23T01:48:52.148Z,1010.7
2016-07-23T01:49:52.228Z,1010.69
2016-07-23T01:50:52.127Z,1010.69
2016-07-23T01:51:52.120Z,1010.72
2016-07-23T01:52:52.112Z,1010.72
2016-07-23T01:53:52.099Z,1010.74
2016-07-23T01:54:52.091Z,1010.75
2016-07-23T01:55:52.082Z,1010.68
2016-07-23T01:56:52.068Z,1010.7
2016-07-23T01:57:52.063Z,1010.66
2016-07-23T01:58:52.052Z,1010.67
2016-07-23T01:59:52.039Z,1010.67
2016-07-23T02:00:52.030Z,1010.67
2016-07-23T02:01:52.022Z,1010.67
2016-07-23T02:02:52.007Z,1010.66
2016-07-23T02:03:52.002Z,1010.64
2016-07-23T02:04:51.983Z,1010.64
2016-07-23T02:05:51.974Z,1010.63
2016-07-23T02:06:51.970Z,1010.63
2016-07-23T02:07:51.962Z,1010.6
2016-07-23T02:08:51.946Z,1010.65
2016-07-23T02:09:51.940Z,1010.64
2016-07-23T02:10:51.930Z,1010.63
2016-07-23T02:11:51.918Z,1010.65
2016-07-23T02:12:51.912Z,1010.63
2016-07-23T02:13:51.901Z,1010.64
2016-07-23T02:14:51.881Z,1010.64
2016-07-23T02:15:51.879Z,1010.66
2016-07-23T02:16:51.872Z,1010.65
2016-07-23T02:17:51.859Z,1010.63
2016-07-23T02:18:51.846Z,1010.67
2016-07-23T02:19:51.844Z,1010.63
2016-07-23T02:20:51.833Z,1010.63
2016-07-23T02:21:51.819Z,1010.61
2016-07-23T02:22:51.811Z,1010.58
2016-07-23T02:23:51.801Z,1010.58
2016-07-23T02:24:51.784Z,1010.57
2016-07-23T02:25:51.781Z,1010.52
2016-07-23T02:26:51.763Z,1010.52
2016-07-23T02:27:51.752Z,1010.56
2016-07-23T02:28:51.751Z,1010.58
2016-07-23T02:29:51.735Z,1010.54
2016-07-23T02:30:51.730Z,1010.54
2016-07-23T02:31:51.723Z,1010.54
2016-07-23T02:32:51.711Z,1010.51
2016-07-23T02:33:51.695Z,1010.55
2016-07-23T02:34:51.687Z,1010.54
2016-07-23T02:35:51.671Z,1010.53
2016-07-23T02:36:51.663Z,1010.54
2016-07-23T02:37:51.663Z,1010.53
2016-07-23T02:38:51.643Z,1010.5
2016-07-23T02:39:51.630Z,1010.52
2016-07-23T02:40:51.631Z,1010.5
2016-07-23T02:41:51.611Z,1010.53
2016-07-23T02:42:51.604Z,1010.55
2016-07-23T02:43:51.590Z,1010.52
2016-07-23T02:44:51.578Z,1010.52
2016-07-23T02:45:51.568Z,1010.47
2016-07-23T02:46:51.559Z,1010.48
2016-07-23T02:47:51.550Z,1010.49
2016-07-23T02:48:51.540Z,1010.51
2016-07-23T02:49:51.527Z,1010.49
2016-07-23T02:50:51.518Z,1010.52
2016-07-23T02:51:51.510Z,1010.5
2016-07-23T02:52:51.499Z,1010.49
2016-07-23T02:53:51.488Z,1010.46
2016-07-23T02:54:51.478Z,1010.45
2016-07-23T02:55:51.469Z,1010.48
2016-07-23T02:56:51.461Z,1010.44
2016-07-23T02:57:51.448Z,1010.46
2016-07-23T02:58:51.440Z,1010.47
2016-07-23T02:59:51.427Z,1010.49
2016-07-23T03:00:51.416Z,1010.46
2016-07-23T03:01:51.404Z,1010.48
2016-07-23T03:02:51.394Z,1010.51
2016-07-23T03:03:51.384Z,1010.49
2016-07-23T03:04:51.381Z,1010.49
2016-07-23T03:05:51.371Z,1010.46
2016-07-23T03:06:51.355Z,1010.49
2016-07-23T03:07:51.350Z,1010.47
2016-07-23T03:08:51.337Z,1010.47
2016-07-23T03:09:51.329Z,1010.47
2016-07-23T03:10:51.319Z,1010.49
2016-07-23T03:11:51.307Z,1010.46
2016-07-23T03:12:51.302Z,1010.49
2016-07-23T03:13:51.287Z,1010.49
2016-07-23T03:14:51.276Z,1010.46
2016-07-23T03:15:51.272Z,1010.48
2016-07-23T03:16:51.256Z,1010.45
2016-07-23T03:17:51.249Z,1010.44
2016-07-23T03:18:51.234Z,1010.49
2016-07-23T03:19:51.227Z,1010.46
2016-07-23T03:20:51.221Z,1010.5
2016-07-23T03:21:51.210Z,1010.49
2016-07-23T03:22:51.201Z,1010.48
2016-07-23T03:23:51.179Z,1010.49
2016-07-23T03:24:51.171Z,1010.51
2016-07-23T03:25:51.159Z,1010.54
2016-07-23T03:26:51.149Z,1010.52
2016-07-23T03:27:51.137Z,1010.5
2016-07-23T03:28:51.130Z,1010.49
2016-07-23T03:29:51.117Z,1010.5
2016-07-23T03:30:51.110Z,1010.49
2016-07-23T03:31:51.097Z,1010.54
2016-07-23T03:32:51.089Z,1010.52
2016-07-23T03:33:51.080Z,1010.52
2016-07-23T03:34:51.066Z,1010.52
2016-07-23T03:35:51.060Z,1010.5
2016-07-23T03:36:51.050Z,1010.49
2016-07-23T03:37:51.042Z,1010.52
2016-07-23T03:38:51.028Z,1010.52
2016-07-23T03:39:51.018Z,1010.5
2016-07-23T03:40:51.006Z,1010.54
2016-07-23T03:41:51.000Z,1010.54
2016-07-23T03:42:50.979Z,1010.53
2016-07-23T03:43:50.978Z,1010.49
2016-07-23T03:44:50.964Z,1010.46
2016-07-23T03:45:50.959Z,1010.44
2016-07-23T03:46:50.952Z,1010.5
2016-07-23T03:47:50.933Z,1010.5
2016-07-23T03:48:50.918Z,1010.49
2016-07-23T03:49:50.923Z,1010.47
2016-07-23T03:50:50.900Z,1010.44
2016-07-23T03:51:50.889Z,1010.43
2016-07-23T03:52:50.894Z,1010.41
2016-07-23T03:53:50.870Z,1010.4
2016-07-23T03:54:50.857Z,1010.41
2016-07-23T03:55:50.847Z,1010.36
2016-07-23T03:56:50.839Z,1010.4
2016-07-23T03:57:50.827Z,1010.4
2016-07-23T03:58:50.817Z,1010.4
2016-07-23T03:59:50.805Z,1010.41
2016-07-23T04:00:50.795Z,1010.42
2016-07-23T04:01:50.789Z,1010.43
2016-07-23T04:02:50.774Z,1010.45
2016-07-23T04:03:50.763Z,1010.45
2016-07-23T04:04:50.760Z,1010.49
2016-07-23T04:05:50.750Z,1010.49
2016-07-23T04:06:50.732Z,1010.52
2016-07-23T04:07:50.730Z,1010.53
2016-07-23T04:08:50.720Z,1010.54
2016-07-23T04:09:50.700Z,1010.55
2016-07-23T04:10:50.690Z,1010.58
2016-07-23T04:11:50.679Z,1010.58
2016-07-23T04:12:50.669Z,1010.61
2016-07-23T04:13:50.659Z,1010.59
2016-07-23T04:14:50.647Z,1010.63
2016-07-23T04:15:50.641Z,1010.63
2016-07-23T04:16:50.630Z,1010.64
2016-07-23T04:17:50.618Z,1010.66
2016-07-23T04:18:50.609Z,1010.67
2016-07-23T04:19:50.599Z,1010.66
2016-07-23T04:20:50.590Z,1010.69
2016-07-23T04:21:50.578Z,1010.68
2016-07-23T04:22:50.565Z,1010.69
2016-07-23T04:23:50.555Z,1010.7
2016-07-23T04:24:50.546Z,1010.69
2016-07-23T04:25:50.541Z,1010.7
2016-07-23T04:26:50.528Z,1010.7
2016-07-23T04:27:50.512Z,1010.71
2016-07-23T04:28:50.510Z,1010.71
2016-07-23T04:29:50.498Z,1010.71
2016-07-23T04:30:50.482Z,1010.75
2016-07-23T04:31:50.470Z,1010.72
2016-07-23T04:32:50.461Z,1010.73
2016-07-23T04:33:50.449Z,1010.71
2016-07-23T04:34:50.439Z,1010.72
2016-07-23T04:35:50.430Z,1010.72
2016-07-23T04:36:50.422Z,1010.74
2016-07-23T04:37:50.409Z,1010.75
2016-07-23T04:38:50.400Z,1010.75
2016-07-23T04:39:50.392Z,1010.77
2016-07-23T04:40:50.377Z,1010.76
2016-07-23T04:41:50.370Z,1010.76
2016-07-23T04:42:50.359Z,1010.74
2016-07-23T04:43:50.343Z,1010.74
2016-07-23T04:44:50.345Z,1010.77
2016-07-23T04:45:50.322Z,1010.8
2016-07-23T04:46:50.363Z,1010.8
2016-07-23T04:47:50.308Z,1010.84
2016-07-23T04:48:50.298Z,1010.8
2016-07-23T04:49:50.290Z,1010.77
2016-07-23T04:50:50.329Z,1010.81
2016-07-23T04:51:50.264Z,1010.82
2016-07-23T04:52:50.259Z,1010.77
2016-07-23T04:53:50.239Z,1010.77
2016-07-23T04:54:50.232Z,1010.78
2016-07-23T04:55:50.224Z,1010.73
2016-07-23T04:56:50.210Z,1010.77
2016-07-23T04:57:50.199Z,1010.7
2016-07-23T04:58:50.189Z,1010.77
2016-07-23T04:59:50.181Z,1010.72
2016-07-23T05:00:50.170Z,1010.75
2016-07-23T05:01:50.158Z,1010.76
2016-07-23T05:02:50.147Z,1010.77
2016-07-23T05:03:50.142Z,1010.76
2016-07-23T05:04:50.127Z,1010.75
2016-07-23T05:05:50.117Z,1010.73
2016-07-23T05:06:50.112Z,1010.75
2016-07-23T05:07:50.094Z,1010.78
2016-07-23T05:08:50.088Z,1010.77
2016-07-23T05:09:50.075Z,1010.78
2016-07-23T05:10:50.065Z,1010.76
2016-07-23T05:11:50.057Z,1010.75
2016-07-23T05:12:50.044Z,1010.75
2016-07-23T05:13:50.032Z,1010.78
2016-07-23T05:14:50.025Z,1010.76
2016-07-23T05:15:50.018Z,1010.8
2016-07-23T05:16:50.003Z,1010.77
2016-07-23T05:17:49.993Z,1010.8
2016-07-23T05:18:49.987Z,1010.79
2016-07-23T05:19:49.969Z,1010.82
2016-07-23T05:20:49.962Z,1010.79
2016-07-23T05:21:49.957Z,1010.79
2016-07-23T05:22:49.940Z,1010.84
2016-07-23T05:23:49.933Z,1010.87
2016-07-23T05:24:49.920Z,1010.84
2016-07-23T05:25:49.912Z,1010.81
2016-07-23T05:26:49.900Z,1010.83
2016-07-23T05:27:49.889Z,1010.86
2016-07-23T05:28:49.881Z,1010.85
2016-07-23T05:29:49.878Z,1010.85
2016-07-23T05:30:49.861Z,1010.86
2016-07-23T05:31:49.855Z,1010.87
2016-07-23T05:32:49.839Z,1010.87
2016-07-23T05:33:49.858Z,1010.91
2016-07-23T05:34:49.820Z,1010.92
2016-07-23T05:35:49.814Z,1010.96
2016-07-23T05:36:49.800Z,1010.98
2016-07-23T05:37:49.792Z,1010.97
2016-07-23T05:38:49.781Z,1011
2016-07-23T05:39:49.770Z,1011
2016-07-23T05:40:49.759Z,1010.98
2016-07-23T05:41:49.751Z,1011.06
2016-07-23T05:42:49.740Z,1011.04
2016-07-23T05:43:49.732Z,1011.04
2016-07-23T05:44:49.722Z,1011.07
2016-07-23T05:45:49.710Z,1011.07
2016-07-23T05:46:49.696Z,1011.08
2016-07-23T05:47:49.689Z,1011.09
2016-07-23T05:48:49.684Z,1011.11
2016-07-23T05:49:49.667Z,1011.07
2016-07-23T05:50:49.659Z,1011.1
2016-07-23T05:51:49.651Z,1011.08
2016-07-23T05:52:49.641Z,1011.11
2016-07-23T05:53:49.630Z,1011.1
2016-07-23T05:54:49.623Z,1011.11
2016-07-23T05:55:49.615Z,1011.15
2016-07-23T05:56:49.611Z,1011.15
2016-07-23T05:57:49.592Z,1011.17
2016-07-23T05:58:49.580Z,1011.19
2016-07-23T05:59:49.576Z,1011.16
2016-07-23T06:00:49.559Z,1011.12
2016-07-23T06:01:49.552Z,1011.14
2016-07-23T06:02:49.544Z,1011.16
2016-07-23T06:03:49.537Z,1011.13
2016-07-23T06:04:49.530Z,1011.15
2016-07-23T06:05:49.515Z,1011.15
2016-07-23T06:06:49.506Z,1011.15
2016-07-23T06:07:49.497Z,1011.17
2016-07-23T06:08:49.490Z,1011.2
2016-07-23T06:09:49.476Z,1011.19
2016-07-23T06:10:49.475Z,1011.17
2016-07-23T06:11:49.458Z,1011.16
2016-07-23T06:12:49.450Z,1011.2
2016-07-23T06:13:49.440Z,1011.18
2016-07-23T06:14:49.427Z,1011.19
2016-07-23T06:15:49.420Z,1011.2
2016-07-23T06:16:49.411Z,1011.21
2016-07-23T06:17:49.402Z,1011.2
2016-07-23T06:18:49.392Z,1011.2
2016-07-23T06:19:49.381Z,1011.21
2016-07-23T06:20:49.374Z,1011.26
2016-07-23T06:21:49.363Z,1011.26
2016-07-23T06:22:49.360Z,1011.26
2016-07-23T06:23:49.351Z,1011.27
2016-07-23T06:24:49.336Z,1011.31
2016-07-23T06:25:49.324Z,1011.28
2016-07-23T06:26:49.318Z,1011.31
2016-07-23T06:27:49.308Z,1011.27
2016-07-23T06:28:49.298Z,1011.24
2016-07-23T06:29:49.290Z,1011.25
2016-07-23T06:30:49.279Z,1011.24
2016-07-23T06:31:49.273Z,1011.25
2016-07-23T06:32:49.265Z,1011.23
2016-07-23T06:33:49.259Z,1011.26
2016-07-23T06:34:49.249Z,1011.24
2016-07-23T06:35:49.239Z,1011.27
2016-07-23T06:36:49.226Z,1011.27
2016-07-23T06:37:49.220Z,1011.35
2016-07-23T06:38:49.220Z,1011.33
2016-07-23T06:39:49.200Z,1011.31
2016-07-23T06:40:49.189Z,1011.37
2016-07-23T06:41:49.191Z,1011.38
2016-07-23T06:42:49.171Z,1011.37
2016-07-23T06:43:49.170Z,1011.37
2016-07-23T06:44:49.155Z,1011.34
2016-07-23T06:45:49.151Z,1011.34
2016-07-23T06:46:49.138Z,1011.34
2016-07-23T06:47:49.130Z,1011.34
2016-07-23T06:48:49.119Z,1011.39
2016-07-23T06:49:49.110Z,1011.36
2016-07-23T06:50:49.108Z,1011.34
2016-07-23T06:51:49.094Z,1011.33
2016-07-23T06:52:49.092Z,1011.32
2016-07-23T06:53:49.080Z,1011.38
2016-07-23T06:54:49.071Z,1011.37
2016-07-23T06:55:49.058Z,1011.36
2016-07-23T06:56:49.050Z,1011.37
2016-07-23T06:57:49.050Z,1011.36
2016-07-23T06:58:49.041Z,1011.37
2016-07-23T06:59:49.031Z,1011.35
2016-07-23T07:00:49.018Z,1011.35
2016-07-23T07:01:49.007Z,1011.3
2016-07-23T07:02:48.999Z,1011.29
2016-07-23T07:03:48.998Z,1011.31
2016-07-23T07:04:48.988Z,1011.27
2016-07-23T07:05:48.982Z,1011.28
2016-07-23T07:06:48.977Z,1011.28
2016-07-23T07:07:48.964Z,1011.27
2016-07-23T07:08:48.952Z,1011.31
2016-07-23T07:09:48.941Z,1011.33
2016-07-23T07:10:48.934Z,1011.3
2016-07-23T07:11:48.927Z,1011.32
2016-07-23T07:12:48.921Z,1011.28
2016-07-23T07:13:48.911Z,1011.31
2016-07-23T07:14:48.911Z,1011.29
2016-07-23T07:15:48.896Z,1011.33
2016-07-23T07:16:48.891Z,1011.35
2016-07-23T07:17:48.875Z,1011.35
2016-07-23T07:18:48.869Z,1011.34
2016-07-23T07:19:48.866Z,1011.33
2016-07-23T07:20:48.854Z,1011.34
2016-07-23T07:21:48.844Z,1011.29
2016-07-23T07:22:48.840Z,1011.38
2016-07-23T07:23:48.832Z,1011.36
2016-07-23T07:24:48.833Z,1011.32
2016-07-23T07:25:48.815Z,1011.33
2016-07-23T07:26:48.809Z,1011.37
2016-07-23T07:27:48.801Z,1011.34
2016-07-23T07:28:48.792Z,1011.33
2016-07-23T07:29:48.790Z,1011.37
2016-07-23T07:30:48.775Z,1011.4
2016-07-23T07:31:48.769Z,1011.34
2016-07-23T07:32:48.762Z,1011.39
2016-07-23T07:33:48.749Z,1011.41
2016-07-23T07:34:48.748Z,1011.37
2016-07-23T07:35:48.740Z,1011.38
2016-07-23T07:36:48.737Z,1011.41
2016-07-23T07:37:48.721Z,1011.4
2016-07-23T07:38:48.722Z,1011.39
2016-07-23T07:39:48.713Z,1011.37
2016-07-23T07:40:48.699Z,1011.4
2016-07-23T07:41:48.692Z,1011.35
2016-07-23T07:42:48.691Z,1011.42
2016-07-23T07:43:48.675Z,1011.38
2016-07-23T07:44:48.670Z,1011.4
2016-07-23T07:45:48.663Z,1011.41
2016-07-23T07:46:48.660Z,1011.4
2016-07-23T07:47:48.649Z,1011.41
2016-07-23T07:48:48.642Z,1011.42
2016-07-23T07:49:48.633Z,1011.4
2016-07-23T07:50:48.633Z,1011.42
2016-07-23T07:51:48.621Z,1011.38
2016-07-23T07:52:48.622Z,1011.41
2016-07-23T07:53:48.601Z,1011.42
2016-07-23T07:54:48.601Z,1011.42
2016-07-23T07:55:48.588Z,1011.39
2016-07-23T07:56:48.584Z,1011.37
2016-07-23T07:57:48.574Z,1011.34
2016-07-23T07:58:48.565Z,1011.36
2016-07-23T07:59:48.560Z,1011.38
2016-07-23T08:00:48.554Z,1011.38
2016-07-23T08:01:48.540Z,1011.39
2016-07-23T08:02:48.534Z,1011.39
2016-07-23T08:03:48.529Z,1011.35
2016-07-23T08:04:48.526Z,1011.38
2016-07-23T08:05:48.509Z,1011.39
2016-07-23T08:06:48.510Z,1011.38
2016-07-23T08:07:48.496Z,1011.43
2016-07-23T08:08:48.489Z,1011.41
2016-07-23T08:09:48.490Z,1011.43
2016-07-23T08:10:48.481Z,1011.46
2016-07-23T08:11:48.468Z,1011.44
2016-07-23T08:12:48.462Z,1011.47
2016-07-23T08:13:48.462Z,1011.47
2016-07-23T08:14:48.448Z,1011.5
2016-07-23T08:15:48.440Z,1011.48
2016-07-23T08:16:48.502Z,1011.46
2016-07-23T08:17:48.428Z,1011.48
2016-07-23T08:18:48.421Z,1011.47
2016-07-23T08:19:48.416Z,1011.48
2016-07-23T08:20:48.408Z,1011.48
2016-07-23T08:21:48.398Z,1011.5
2016-07-23T08:22:48.391Z,1011.53
2016-07-23T08:23:48.390Z,1011.54
2016-07-23T08:24:48.377Z,1011.57
2016-07-23T08:25:48.380Z,1011.61
2016-07-23T08:26:48.370Z,1011.59
2016-07-23T08:27:48.407Z,1011.61
2016-07-23T08:28:48.352Z,1011.67
2016-07-23T08:29:48.350Z,1011.67
2016-07-23T08:30:48.334Z,1011.68
2016-07-23T08:31:48.333Z,1011.67
2016-07-23T08:32:48.330Z,1011.71
2016-07-23T08:33:48.316Z,1011.71
2016-07-23T08:34:48.311Z,1011.68
2016-07-23T08:35:48.302Z,1011.68
2016-07-23T08:36:48.296Z,1011.7
2016-07-23T08:37:48.300Z,1011.71
2016-07-23T08:38:48.289Z,1011.69
2016-07-23T08:39:48.279Z,1011.65
2016-07-23T08:40:48.279Z,1011.68
2016-07-23T08:41:48.269Z,1011.67
2016-07-23T08:42:48.258Z,1011.67
2016-07-23T08:43:48.256Z,1011.69
2016-07-23T08:44:48.247Z,1011.72
2016-07-23T08:45:48.241Z,1011.72
2016-07-23T08:46:48.235Z,1011.74
2016-07-23T08:47:48.228Z,1011.78
2016-07-23T08:48:48.225Z,1011.78
2016-07-23T08:49:48.217Z,1011.8
2016-07-23T08:50:48.216Z,1011.83
2016-07-23T08:51:48.223Z,1011.94
2016-07-23T08:52:48.198Z,1011.93
2016-07-23T08:53:48.208Z,1011.95
2016-07-23T08:54:48.188Z,1012.01
2016-07-23T08:55:48.179Z,1012
2016-07-23T08:56:48.177Z,1012.06
2016-07-23T08:57:48.164Z,1012.07
2016-07-23T08:58:48.167Z,1012.09
2016-07-23T08:59:48.170Z,1012.07
2016-07-23T09:00:48.148Z,1012.06
2016-07-23T09:01:48.151Z,1012.09
2016-07-23T09:02:48.141Z,1012.07
2016-07-23T09:03:48.128Z,1012.1
2016-07-23T09:04:48.128Z,1012.12
2016-07-23T09:05:48.115Z,1012.12
2016-07-23T09:06:48.118Z,1012.11
2016-07-23T09:07:48.108Z,1012.08
2016-07-23T09:08:48.107Z,1012.08
2016-07-23T09:09:48.094Z,1012.06
2016-07-23T09:10:48.138Z,1012.08
2016-07-23T09:11:48.083Z,1012.07
2016-07-23T09:12:48.097Z,1012.03
2016-07-23T09:13:48.079Z,1012.05
2016-07-23T09:14:48.061Z,1012.09
2016-07-23T09:15:48.060Z,1012.11
2016-07-23T09:16:48.050Z,1012.07
2016-07-23T09:17:48.049Z,1012.09
2016-07-23T09:18:48.034Z,1012.1
2016-07-23T09:19:48.037Z,1012.09
2016-07-23T09:20:48.030Z,1012.09
2016-07-23T09:21:48.020Z,1012.07
2016-07-23T09:22:48.018Z,1012.09
2016-07-23T09:23:48.007Z,1012.09
2016-07-23T09:24:47.997Z,1012.11
2016-07-23T09:25:47.998Z,1012.1
2016-07-23T09:26:47.989Z,1012.13
2016-07-23T09:27:47.989Z,1012.1
2016-07-23T09:28:47.974Z,1012.09
2016-07-23T09:29:47.973Z,1012.05
2016-07-23T09:30:47.967Z,1012.08
2016-07-23T09:31:47.958Z,1012.08
2016-07-23T09:32:47.970Z,1012.08
2016-07-23T09:33:47.949Z,1012.09
2016-07-23T09:34:47.947Z,1012.12
2016-07-23T09:35:47.941Z,1012.12
2016-07-23T09:36:47.930Z,1012.12
2016-07-23T09:37:47.928Z,1012.11
2016-07-23T09:38:47.916Z,1012.12
2016-07-23T09:39:47.915Z,1012.12
2016-07-23T09:40:47.902Z,1012.14
2016-07-23T09:41:47.900Z,1012.17
2016-07-23T09:42:47.898Z,1012.12
2016-07-23T09:43:47.889Z,1012.18
2016-07-23T09:44:47.878Z,1012.18
2016-07-23T09:45:47.876Z,1012.15
2016-07-23T09:46:47.869Z,1012.17
2016-07-23T09:47:47.865Z,1012.18
2016-07-23T09:48:47.863Z,1012.16
2016-07-23T09:49:47.850Z,1012.18
2016-07-23T09:50:47.858Z,1012.14
2016-07-23T09:51:47.838Z,1012.21
2016-07-23T09:52:47.830Z,1012.21
2016-07-23T09:53:47.822Z,1012.14
2016-07-23T09:54:47.820Z,1012.18
2016-07-23T09:55:47.810Z,1012.21
2016-07-23T09:56:47.809Z,1012.19
2016-07-23T09:57:47.796Z,1012.18
2016-07-23T09:58:47.793Z,1012.16
2016-07-23T09:59:47.786Z,1012.14
2016-07-23T10:00:47.777Z,1012.18
2016-07-23T10:01:47.770Z,1012.18
2016-07-23T10:02:47.769Z,1012.18
2016-07-23T10:03:47.757Z,1012.22
2016-07-23T10:04:47.753Z,1012.21
2016-07-23T10:05:47.740Z,1012.17
2016-07-23T10:06:47.739Z,1012.19
2016-07-23T10:07:47.731Z,1012.22
2016-07-23T10:08:47.728Z,1012.22
2016-07-23T10:09:47.720Z,1012.22
2016-07-23T10:10:47.714Z,1012.21
2016-07-23T10:11:47.700Z,1012.22
2016-07-23T10:12:47.699Z,1012.22
2016-07-23T10:13:47.688Z,1012.24
2016-07-23T10:14:47.687Z,1012.2
2016-07-23T10:15:47.688Z,1012.2
2016-07-23T10:16:47.666Z,1012.2
2016-07-23T10:17:47.666Z,1012.18
2016-07-23T10:18:47.660Z,1012.18
2016-07-23T10:19:47.646Z,1012.19
2016-07-23T10:20:47.646Z,1012.18
2016-07-23T10:21:47.635Z,1012.2
2016-07-23T10:22:47.635Z,1012.2
2016-07-23T10:23:47.629Z,1012.19
2016-07-23T10:24:47.618Z,1012.23
2016-07-23T10:25:47.609Z,1012.22
2016-07-23T10:26:47.607Z,1012.23
2016-07-23T10:27:47.600Z,1012.24
2016-07-23T10:28:47.586Z,1012.24
2016-07-23T10:29:47.583Z,1012.21
2016-07-23T10:30:47.578Z,1012.22
2016-07-23T10:31:47.565Z,1012.25
2016-07-23T10:32:47.560Z,1012.28
2016-07-23T10:33:47.560Z,1012.28
2016-07-23T10:34:47.546Z,1012.22
2016-07-23T10:35:47.539Z,1012.26
2016-07-23T10:36:47.530Z,1012.28
2016-07-23T10:37:47.529Z,1012.25
2016-07-23T10:38:47.516Z,1012.28
2016-07-23T10:39:47.511Z,1012.27
2016-07-23T10:40:47.506Z,1012.28
2016-07-23T10:41:47.497Z,1012.32
2016-07-23T10:42:47.485Z,1012.32
2016-07-23T10:43:47.487Z,1012.28
2016-07-23T10:44:47.475Z,1012.27
2016-07-23T10:45:47.466Z,1012.34
2016-07-23T10:46:47.459Z,1012.29
2016-07-23T10:47:47.458Z,1012.28
2016-07-23T10:48:47.448Z,1012.31
2016-07-23T10:49:47.440Z,1012.27
2016-07-23T10:50:47.426Z,1012.3
2016-07-23T10:51:47.426Z,1012.27
2016-07-23T10:52:47.419Z,1012.29
2016-07-23T10:53:47.406Z,1012.27
2016-07-23T10:54:47.398Z,1012.27
2016-07-23T10:55:47.393Z,1012.25
2016-07-23T10:56:47.384Z,1012.3
2016-07-23T10:57:47.379Z,1012.31
2016-07-23T10:58:47.378Z,1012.31
2016-07-23T10:59:47.362Z,1012.3
2016-07-23T11:00:47.360Z,1012.34
2016-07-23T11:01:47.348Z,1012.33
2016-07-23T11:02:47.347Z,1012.34
2016-07-23T11:03:47.334Z,1012.38
2016-07-23T11:04:47.331Z,1012.41
2016-07-23T11:05:47.317Z,1012.45
2016-07-23T11:06:47.310Z,1012.43
2016-07-23T11:07:47.300Z,1012.44
2016-07-23T11:08:47.300Z,1012.41
2016-07-23T11:09:47.291Z,1012.41
2016-07-23T11:10:47.280Z,1012.39
2016-07-23T11:11:47.272Z,1012.43
2016-07-23T11:12:47.271Z,1012.45
2016-07-23T11:13:47.258Z,1012.45
2016-07-23T11:14:47.250Z,1012.42
2016-07-23T11:15:47.247Z,1012.42
2016-07-23T11:16:47.238Z,1012.43
2016-07-23T11:17:47.229Z,1012.43
2016-07-23T11:18:47.221Z,1012.49
2016-07-23T11:19:47.220Z,1012.49
2016-07-23T11:20:47.210Z,1012.43
2016-07-23T11:21:47.197Z,1012.44
2016-07-23T11:22:47.198Z,1012.44
2016-07-23T11:23:47.182Z,1012.45
2016-07-23T11:24:47.180Z,1012.48
2016-07-23T11:25:47.166Z,1012.44
2016-07-23T11:26:47.157Z,1012.44
2016-07-23T11:27:47.158Z,1012.42
2016-07-23T11:28:47.146Z,1012.4
2016-07-23T11:29:47.139Z,1012.42
2016-07-23T11:30:47.128Z,1012.43
2016-07-23T11:31:47.125Z,1012.44
2016-07-23T11:32:47.117Z,1012.42
2016-07-23T11:33:47.109Z,1012.4
2016-07-23T11:34:47.110Z,1012.43
2016-07-23T11:35:47.097Z,1012.41
2016-07-23T11:36:47.085Z,1012.44
2016-07-23T11:37:47.077Z,1012.41
2016-07-23T11:38:47.070Z,1012.45
2016-07-23T11:39:47.063Z,1012.45
2016-07-23T11:40:47.052Z,1012.47
2016-07-23T11:41:47.048Z,1012.46
2016-07-23T11:42:47.050Z,1012.43
2016-07-23T11:43:47.039Z,1012.46
2016-07-23T11:44:47.026Z,1012.44
2016-07-23T11:45:47.018Z,1012.44
2016-07-23T11:46:47.006Z,1012.43
2016-07-23T11:47:47.008Z,1012.44
2016-07-23T11:48:46.991Z,1012.42
2016-07-23T11:49:46.987Z,1012.43
2016-07-23T11:50:46.976Z,1012.41
2016-07-23T11:51:46.966Z,1012.4
2016-07-23T11:52:46.964Z,1012.4
2016-07-23T11:53:46.956Z,1012.39
2016-07-23T11:54:46.948Z,1012.42
2016-07-23T11:55:46.939Z,1012.39
2016-07-23T11:56:46.927Z,1012.39
2016-07-23T11:57:46.922Z,1012.35
2016-07-23T11:58:46.921Z,1012.4
2016-07-23T11:59:46.906Z,1012.37
2016-07-23T12:00:46.911Z,1012.4
2016-07-23T12:01:46.887Z,1012.38
2016-07-23T12:02:46.887Z,1012.38
2016-07-23T12:03:46.888Z,1012.37
2016-07-23T12:04:46.866Z,1012.41
2016-07-23T12:05:46.859Z,1012.4
2016-07-23T12:06:46.855Z,1012.39
2016-07-23T12:07:46.849Z,1012.42
2016-07-23T12:08:46.839Z,1012.42